Time;durP1;ratioP1;P1;durP2;ratioP2;P2;SDS_P1;SDS_P2;PMS_P1;PMS_P2;Temp;Humidity;BMP_temperature;BMP_pressure;BME280_temperature;BME280_humidity;BME280_pressure;Samples;Min_cycle;Max_cycle;Signal;HPM_P1;HPM_P2
2023/06/18 00:00:56;;;;;;;;;;;;;;;15.86;100.00;101105.03;10525962;28;19924;-81
2023/06/18 00:05:56;;;;;;;;;;;;;;;15.60;100.00;101101.56;10522620;28;19923;-81
2023/06/18 00:10:56;;;;;;;;;;;;;;;15.30;100.00;101103.31;10549601;28;19926;-81
2023/06/18 00:15:57;;;;;;;;;;;;;;;15.07;100.00;101105.19;10536978;28;19927;-81
2023/06/18 00:20:59;;;;;;;;;;;;;;;14.95;100.00;101103.94;10539377;28;19920;-81
2023/06/18 00:25:59;;;;;;;;;;;;;;;14.79;100.00;101096.34;10503925;28;19989;-81
2023/06/18 00:31:01;;;;;;;;;;;;;;;14.70;100.00;101089.06;10491370;28;19963;-81
2023/06/18 00:36:04;;;;;;;;;;;;;;;14.61;100.00;101086.94;10527032;28;20007;-81
2023/06/18 00:41:05;;;;;;;;;;;;;;;14.47;100.00;101075.03;10497744;28;19935;-81
2023/06/18 00:46:05;;;;;;;;;;;;;;;14.35;100.00;101080.78;10510030;28;19920;-80
2023/06/18 00:51:05;;;;;;;;;;;;;;;14.24;100.00;101085.66;10527037;28;19920;-80
2023/06/18 00:56:07;;;;;;;;;;;;;;;14.14;100.00;101081.81;10518691;28;19920;-80
2023/06/18 01:01:08;;;;;;;;;;;;;;;14.03;100.00;101081.38;10510466;28;20367;-80
2023/06/18 01:06:09;;;;;;;;;;;;;;;13.97;100.00;101081.16;10502323;28;19973;-80
2023/06/18 01:11:10;;;;;;;;;;;;;;;13.94;100.00;101073.16;10504870;28;19923;-81
2023/06/18 01:16:10;;;;;;;;;;;;;;;13.95;100.00;101086.38;10511924;28;19946;-80
2023/06/18 01:21:11;;;;;;;;;;;;;;;14.00;100.00;101080.41;10511253;28;19923;-80
2023/06/18 01:26:12;;;;;;;;;;;;;;;14.03;100.00;101072.63;10502910;28;20387;-80
2023/06/18 01:31:12;;;;;;;;;;;;;;;13.98;100.00;101071.56;10517213;28;20026;-81
2023/06/18 01:36:13;;;;;;;;;;;;;;;13.88;100.00;101080.81;10507344;28;19920;-80
2023/06/18 01:41:15;;;;;;;;;;;;;;;13.86;100.00;101080.78;10496338;28;19920;-82
2023/06/18 01:46:25;;;;;;;;;;;;;;;13.84;100.00;101074.56;10528699;28;20375;-82
2023/06/18 01:51:25;;;;;;;;;;;;;;;13.71;100.00;101073.19;10528567;28;19920;-81
2023/06/18 01:56:28;;;;;;;;;;;;;;;13.57;100.00;101075.31;10499659;28;19928;-81
2023/06/18 02:01:30;;;;;;;;;;;;;;;13.45;100.00;101070.44;10510468;28;20019;-82
2023/06/18 02:06:30;;;;;;;;;;;;;;;13.33;100.00;101076.09;10534183;28;20371;-81
2023/06/18 02:11:30;;;;;;;;;;;;;;;13.20;100.00;101060.69;10529786;28;19924;-82
2023/06/18 02:16:31;;;;;;;;;;;;;;;13.15;100.00;101057.84;10545073;28;19920;-81
2023/06/18 02:21:31;;;;;;;;;;;;;;;13.16;100.00;101059.63;10529210;28;19920;-82
2023/06/18 02:26:31;;;;;;;;;;;;;;;13.16;100.00;101071.91;10526429;28;19970;-81
2023/06/18 02:31:32;;;;;;;;;;;;;;;13.10;100.00;101069.91;10512832;28;20333;-81
2023/06/18 02:36:34;;;;;;;;;;;;;;;13.01;100.00;101067.81;10502300;28;19950;-81
2023/06/18 02:41:34;;;;;;;;;;;;;;;12.96;100.00;101063.19;10510075;28;20417;-82
2023/06/18 02:46:35;;;;;;;;;;;;;;;12.99;100.00;101068.56;10527052;28;19920;-81
2023/06/18 02:51:37;;;;;;;;;;;;;;;12.85;100.00;101068.91;10528337;28;19927;-82
2023/06/18 02:56:37;;;;;;;;;;;;;;;12.74;100.00;101070.19;10526240;28;19973;-82
2023/06/18 03:01:37;;;;;;;;;;;;;;;12.69;100.00;101055.97;10486479;28;20014;-82
2023/06/18 03:06:37;;;;;;;;;;;;;;;12.63;100.00;101060.13;10504806;28;20403;-82
2023/06/18 03:11:38;;;;;;;;;;;;;;;12.55;100.00;101063.28;10507860;28;20010;-81
2023/06/18 03:16:38;;;;;;;;;;;;;;;12.47;100.00;101069.09;10507719;28;19973;-81
2023/06/18 03:21:39;;;;;;;;;;;;;;;12.47;100.00;101069.09;10525131;28;19977;-81
2023/06/18 03:26:41;;;;;;;;;;;;;;;12.53;100.00;101068.44;10530031;28;20409;-84
2023/06/18 03:31:41;;;;;;;;;;;;;;;12.57;100.00;101064.22;10495063;28;19920;-82
2023/06/18 03:36:41;;;;;;;;;;;;;;;12.60;100.00;101061.75;10507243;28;20019;-84
2023/06/18 03:41:42;;;;;;;;;;;;;;;12.67;100.00;101055.00;10525578;28;20387;-80
2023/06/18 03:46:42;;;;;;;;;;;;;;;12.73;100.00;101047.38;10506823;28;19924;-79
2023/06/18 03:51:42;;;;;;;;;;;;;;;12.82;100.00;101053.00;10525978;28;19923;-80
2023/06/18 03:56:43;;;;;;;;;;;;;;;12.98;100.00;101056.28;10504708;28;20117;-80
2023/06/18 04:01:43;;;;;;;;;;;;;;;13.14;100.00;101058.69;10487730;28;19920;-80
2023/06/18 04:06:44;;;;;;;;;;;;;;;13.33;100.00;101067.31;10505029;28;19931;-79
2023/06/18 04:11:45;;;;;;;;;;;;;;;13.41;100.00;101057.97;10530146;28;19920;-79
2023/06/18 04:16:46;;;;;;;;;;;;;;;13.60;100.00;101064.00;10522394;28;19923;-80
2023/06/18 04:21:47;;;;;;;;;;;;;;;13.76;100.00;101071.63;10503992;28;20295;-80
2023/06/18 04:26:47;;;;;;;;;;;;;;;13.90;100.00;101071.25;10516141;28;19928;-77
2023/06/18 04:31:48;;;;;;;;;;;;;;;14.13;100.00;101063.31;10514729;28;20330;-78
2023/06/18 04:36:48;;;;;;;;;;;;;;;14.29;100.00;101054.25;10506635;28;19924;-78
2023/06/18 04:41:48;;;;;;;;;;;;;;;14.36;100.00;101050.97;10525649;28;20323;-78
2023/06/18 04:46:49;;;;;;;;;;;;;;;14.42;100.00;101047.66;10538551;28;19919;-79
2023/06/18 04:51:49;;;;;;;;;;;;;;;14.45;100.00;101051.31;10565973;28;19919;-79
2023/06/18 04:56:50;;;;;;;;;;;;;;;14.61;100.00;101042.16;10532498;28;19920;-78
2023/06/18 05:01:51;;;;;;;;;;;;;;;14.76;100.00;101036.56;10505909;28;19924;-78
2023/06/18 05:06:51;;;;;;;;;;;;;;;15.00;100.00;101047.84;10493357;28;20062;-79
2023/06/18 05:11:51;;;;;;;;;;;;;;;15.18;100.00;101063.38;10466087;28;20360;-78
2023/06/18 05:16:52;;;;;;;;;;;;;;;15.41;100.00;101074.63;10522978;28;19928;-78
2023/06/18 05:21:52;;;;;;;;;;;;;;;15.82;100.00;101067.06;10566013;28;19923;-77
2023/06/18 05:26:52;;;;;;;;;;;;;;;16.55;100.00;101073.50;10535841;28;19924;-78
2023/06/18 05:31:53;;;;;;;;;;;;;;;17.24;100.00;101068.19;10529491;28;20382;-79
2023/06/18 05:36:53;;;;;;;;;;;;;;;17.66;100.00;101063.81;10510953;28;19924;-80
2023/06/18 05:41:53;;;;;;;;;;;;;;;17.52;100.00;101063.53;10512111;28;20269;-81
2023/06/18 05:46:53;;;;;;;;;;;;;;;17.40;100.00;101066.78;10531288;28;19928;-79
2023/06/18 05:51:54;;;;;;;;;;;;;;;17.96;100.00;101067.97;10512640;28;19935;-79
2023/06/18 05:56:54;;;;;;;;;;;;;;;18.98;100.00;101063.72;10511549;28;19924;-78
2023/06/18 06:01:55;;;;;;;;;;;;;;;20.05;100.00;101058.13;10516371;28;20356;-82
2023/06/18 06:06:55;;;;;;;;;;;;;;;20.71;100.00;101064.09;10509991;28;20387;-80
2023/06/18 06:11:58;;;;;;;;;;;;;;;20.95;100.00;101063.44;10509997;28;19920;-79
2023/06/18 06:16:59;;;;;;;;;;;;;;;21.65;100.00;101066.59;10529673;28;19927;-79
2023/06/18 06:21:59;;;;;;;;;;;;;;;22.21;100.00;101058.81;10513406;28;19947;-80
2023/06/18 06:27:00;;;;;;;;;;;;;;;22.09;100.00;101065.88;10564405;28;19919;-79
2023/06/18 06:32:00;;;;;;;;;;;;;;;22.93;100.00;101067.78;10498722;28;19934;-79
2023/06/18 06:37:00;;;;;;;;;;;;;;;23.23;95.07;101063.31;10530324;28;20270;-83
2023/06/18 06:42:01;;;;;;;;;;;;;;;22.64;100.00;101074.91;10510155;28;19919;-80
2023/06/18 06:47:02;;;;;;;;;;;;;;;22.38;100.00;101075.72;10531145;28;20412;-79
2023/06/18 06:52:02;;;;;;;;;;;;;;;22.35;100.00;101080.16;10557180;28;19926;-79
2023/06/18 06:57:03;;;;;;;;;;;;;;;;;;10526339;28;19937;-81
2023/06/18 07:02:03;;;;;;;;;;;;;;;21.04;100.00;101124.69;10523080;28;19945;-81
2023/06/18 07:07:04;;;;;;;;;;;;;;;20.23;100.00;101130.97;10522820;28;19926;-81
2023/06/18 07:12:04;;;;;;;;;;;;;;;20.01;100.00;101132.44;10494727;28;19927;-80
2023/06/18 07:17:05;;;;;;;;;;;;;;;19.90;100.00;101135.84;10512045;28;19955;-79
2023/06/18 07:22:05;;;;;;;;;;;;;;;19.81;100.00;101141.00;10509399;28;19919;-80
2023/06/18 07:27:05;;;;;;;;;;;;;;;19.80;100.00;101136.56;10505746;28;19920;-80
2023/06/18 07:32:06;;;;;;;;;;;;;;;20.23;100.00;101125.66;10512792;28;19927;-78
2023/06/18 07:37:06;;;;;;;;;;;;;;;21.06;100.00;101122.06;10520268;28;19930;-79
2023/06/18 07:42:06;;;;;;;;;;;;;;;21.39;100.00;101124.09;10505001;28;20352;-79
2023/06/18 07:47:07;;;;;;;;;;;;;;;21.75;100.00;101129.69;10499690;28;19928;-79
2023/06/18 07:52:07;;;;;;;;;;;;;;;22.12;100.00;101118.28;10522130;28;20011;-77
2023/06/18 07:57:08;;;;;;;;;;;;;;;22.50;100.00;101114.88;10522131;28;19920;-78
2023/06/18 08:02:08;;;;;;;;;;;;;;;22.99;100.00;101119.41;10524533;28;20363;-78
2023/06/18 08:07:08;;;;;;;;;;;;;;;23.76;98.59;101110.38;10507026;28;19969;-78
2023/06/18 08:12:11;;;;;;;;;;;;;;;24.91;85.28;101099.09;10523402;28;19985;-78
2023/06/18 08:17:15;;;;;;;;;;;;;;;24.99;81.40;101100.81;10523384;28;19920;-78
2023/06/18 08:22:16;;;;;;;;;;;;;;;25.20;84.70;101105.97;10524972;28;19920;-78
2023/06/18 08:27:16;;;;;;;;;;;;;;;25.87;70.34;101104.41;10522570;28;19924;-78
2023/06/18 08:32:16;;;;;;;;;;;;;;;27.32;74.99;101098.69;10524631;28;19923;-79
2023/06/18 08:37:17;;;;;;;;;;;;;;;28.39;62.40;101088.44;10522517;28;19924;-83
2023/06/18 08:42:20;;;;;;;;;;;;;;;28.60;59.48;101090.66;10523467;28;19924;-81
2023/06/18 08:47:21;;;;;;;;;;;;;;;27.77;61.46;101092.44;10524436;28;19920;-80
2023/06/18 08:52:21;;;;;;;;;;;;;;;26.58;63.12;101087.34;10504358;28;19920;-80
2023/06/18 08:57:36;;;;;;;;;;;;;;;25.79;70.51;101088.44;10506591;28;19961;-80
2023/06/18 09:02:36;;;;;;;;;;;;;;;24.99;84.11;101082.97;10506308;28;19920;-80
2023/06/18 09:07:37;;;;;;;;;;;;;;;24.65;86.07;101083.22;10507172;28;20241;-80
2023/06/18 09:12:37;;;;;;;;;;;;;;;24.83;88.04;101076.84;10542731;28;19919;-80
2023/06/18 09:17:40;;;;;;;;;;;;;;;25.02;85.26;101079.38;10570930;28;19923;-80
2023/06/18 09:22:44;;;;;;;;;;;;;;;25.64;79.86;101078.75;10473882;28;19963;-80
2023/06/18 09:27:44;;;;;;;;;;;;;;;26.38;77.75;101069.75;10471410;28;19924;-79
2023/06/18 09:32:45;;;;;;;;;;;;;;;27.11;74.02;101067.72;10506030;28;19926;-79
2023/06/18 09:37:46;;;;;;;;;;;;;;;28.02;68.06;101066.84;10489137;28;19923;-79
2023/06/18 09:42:48;;;;;;;;;;;;;;;29.02;66.08;101069.00;10489321;28;19927;-80
2023/06/18 09:47:49;;;;;;;;;;;;;;;29.59;58.97;101066.56;10506990;28;19920;-80
2023/06/18 09:52:50;;;;;;;;;;;;;;;28.34;62.52;101065.25;10530250;28;19920;-80
2023/06/18 09:57:50;;;;;;;;;;;;;;;27.01;67.21;101063.41;10484400;28;19974;-80
2023/06/18 10:02:50;;;;;;;;;;;;;;;26.14;79.23;101062.97;10530732;28;20356;-80
2023/06/18 10:07:51;;;;;;;;;;;;;;;25.46;86.92;101066.47;10512522;28;19920;-80
2023/06/18 10:12:51;;;;;;;;;;;;;;;25.17;94.38;101067.66;10500871;28;19924;-80
2023/06/18 10:17:52;;;;;;;;;;;;;;;25.26;98.96;101062.19;10515245;28;19923;-80
2023/06/18 10:22:54;;;;;;;;;;;;;;;25.43;91.86;101051.28;10494256;28;20011;-80
2023/06/18 10:27:55;;;;;;;;;;;;;;;25.72;90.66;101047.41;10488078;28;19923;-79
2023/06/18 10:32:55;;;;;;;;;;;;;;;26.08;93.61;101044.25;10503142;28;19916;-80
2023/06/18 10:37:56;;;;;;;;;;;;;;;26.24;81.15;101043.16;10514881;28;19968;-79
2023/06/18 10:43:03;;;;;;;;;;;;;;;26.41;81.75;101033.06;10511368;28;19916;-79
2023/06/18 10:48:12;;;;;;;;;;;;;;;26.75;71.90;101019.09;10510963;28;19920;-79
2023/06/18 10:53:24;;;;;;;;;;;;;;;26.66;72.21;101031.75;10528156;28;19920;-79
2023/06/18 10:58:30;;;;;;;;;;;;;;;26.40;69.23;101032.19;10510482;28;19924;-80
2023/06/18 11:03:34;;;;;;;;;;;;;;;26.42;75.40;101025.00;10486283;28;19968;-78
2023/06/18 11:08:34;;;;;;;;;;;;;;;26.68;77.57;101024.56;10485584;28;20322;-78
2023/06/18 11:13:38;;;;;;;;;;;;;;;27.10;66.19;101023.88;10468120;28;19920;-78
2023/06/18 11:18:39;;;;;;;;;;;;;;;27.14;67.09;101027.38;10486117;28;19946;-78
2023/06/18 11:23:40;;;;;;;;;;;;;;;26.88;71.05;101023.34;10467615;28;20426;-80
2023/06/18 11:28:40;;;;;;;;;;;;;;;26.28;80.38;101008.25;10466048;28;19912;-80
2023/06/18 11:33:46;;;;;;;;;;;;;;;25.76;86.19;101008.94;10486772;28;19916;-80
2023/06/18 11:38:47;;;;;;;;;;;;;;;24.99;100.00;101010.69;10467673;28;19920;-79
2023/06/18 11:43:51;;;;;;;;;;;;;;;24.56;100.00;101003.03;10467555;28;19920;-80
2023/06/18 11:48:52;;;;;;;;;;;;;;;24.30;100.00;100988.94;10485038;28;19944;-80
2023/06/18 11:53:55;;;;;;;;;;;;;;;24.07;100.00;100983.78;10484987;28;19924;-80
2023/06/18 11:58:56;;;;;;;;;;;;;;;23.93;100.00;100975.81;10500109;28;20245;-80
2023/06/18 12:04:06;;;;;;;;;;;;;;;23.96;100.00;100964.22;10513718;28;19932;-80
2023/06/18 12:09:07;;;;;;;;;;;;;;;24.32;100.00;100965.75;10525717;28;20012;-79
2023/06/18 12:14:08;;;;;;;;;;;;;;;24.78;100.00;100961.84;10526616;28;19954;-80
2023/06/18 12:19:08;;;;;;;;;;;;;;;25.42;96.52;100952.19;10524999;28;20363;-80
2023/06/18 12:24:09;;;;;;;;;;;;;;;26.44;91.63;100955.22;10504535;28;19920;-78
2023/06/18 12:29:09;;;;;;;;;;;;;;;27.08;85.74;100947.81;10524054;28;19946;-78
2023/06/18 12:34:22;;;;;;;;;;;;;;;27.53;72.66;100946.03;10503606;28;19920;-78
2023/06/18 12:39:22;;;;;;;;;;;;;;;27.75;72.63;100941.03;10511639;28;19946;-81
2023/06/18 12:44:24;;;;;;;;;;;;;;;28.38;65.06;100933.28;10532545;28;19928;-80
2023/06/18 12:49:24;;;;;;;;;;;;;;;29.42;59.34;100917.00;10514911;28;19970;-79
2023/06/18 12:54:25;;;;;;;;;;;;;;;30.67;53.20;100921.09;10514296;28;19986;-78
2023/06/18 12:59:25;;;;;;;;;;;;;;;30.79;51.20;100911.63;10513349;28;20002;-79
2023/06/18 13:04:26;;;;;;;;;;;;;;;30.79;51.71;100901.72;10518875;28;20360;-79
2023/06/18 13:09:26;;;;;;;;;;;;;;;30.01;52.56;100904.38;10505389;28;19921;-80
2023/06/18 13:14:27;;;;;;;;;;;;;;;29.10;57.19;100899.94;10504392;28;19923;-80
2023/06/18 13:19:30;;;;;;;;;;;;;;;28.71;53.99;100892.91;10472381;28;19920;-79
2023/06/18 13:24:30;;;;;;;;;;;;;;;28.47;53.13;100882.81;10472844;28;20279;-80
2023/06/18 13:29:31;;;;;;;;;;;;;;;28.81;52.99;100873.84;10468960;28;19920;-81
2023/06/18 13:34:33;;;;;;;;;;;;;;;28.85;50.60;100868.34;10501389;28;19920;-80
2023/06/18 13:39:34;;;;;;;;;;;;;;;29.31;49.43;100874.16;10486366;28;19935;-80
2023/06/18 13:44:34;;;;;;;;;;;;;;;29.99;48.10;100867.56;10489769;28;19920;-81
2023/06/18 13:49:35;;;;;;;;;;;;;;;30.85;46.86;100858.28;10488988;28;20360;-81
2023/06/18 13:54:35;;;;;;;;;;;;;;;30.56;43.09;100843.09;10456506;28;20356;-83
2023/06/18 13:59:35;;;;;;;;;;;;;;;29.67;44.75;100851.50;10446894;28;19991;-81
2023/06/18 14:04:36;;;;;;;;;;;;;;;28.92;43.50;100843.91;10490855;28;20007;-78
2023/06/18 14:09:36;;;;;;;;;;;;;;;28.33;45.77;100845.53;10501443;28;19970;-80
2023/06/18 14:14:36;;;;;;;;;;;;;;;27.88;51.08;100844.84;10485291;28;20007;-80
2023/06/18 14:19:37;;;;;;;;;;;;;;;27.40;49.92;100845.94;10519110;28;19920;-80
2023/06/18 14:24:38;;;;;;;;;;;;;;;26.68;54.97;100836.69;10515535;28;19927;-79
2023/06/18 14:29:38;;;;;;;;;;;;;;;26.31;57.46;100829.34;10474318;28;20807;-78
2023/06/18 14:34:38;;;;;;;;;;;;;;;25.98;62.14;100836.16;10487554;28;19920;-78
2023/06/18 14:39:38;;;;;;;;;;;;;;;25.87;78.21;100839.91;10486194;28;20292;-78
2023/06/18 14:44:39;;;;;;;;;;;;;;;25.75;67.28;100843.66;10485203;28;19924;-79
2023/06/18 14:49:39;;;;;;;;;;;;;;;26.14;75.03;100834.09;10473321;28;19921;-79
2023/06/18 14:54:40;;;;;;;;;;;;;;;26.52;56.47;100830.75;10479848;28;19953;-79
2023/06/18 14:59:40;;;;;;;;;;;;;;;26.79;66.36;100822.16;10485683;28;20421;-79
2023/06/18 15:04:41;;;;;;;;;;;;;;;26.99;56.76;100823.56;10484505;28;20003;-79
2023/06/18 15:09:41;;;;;;;;;;;;;;;27.11;59.55;100828.66;10485830;28;20326;-79
2023/06/18 15:14:42;;;;;;;;;;;;;;;27.04;54.46;100822.56;10481908;28;20026;-79
2023/06/18 15:19:43;;;;;;;;;;;;;;;26.67;55.31;100815.25;10524969;28;19924;-78
2023/06/18 15:24:51;;;;;;;;;;;;;;;26.19;54.37;100810.78;10521786;27;19928;-76
2023/06/18 15:29:52;;;;;;;;;;;;;;;25.62;56.41;100816.19;10516559;28;19924;-76
2023/06/18 15:34:52;;;;;;;;;;;;;;;25.18;64.66;100815.03;10520940;28;20010;-76
2023/06/18 15:39:52;;;;;;;;;;;;;;;25.01;89.04;100810.78;10514615;28;19931;-76
2023/06/18 15:44:52;;;;;;;;;;;;;;;24.82;100.00;100807.44;10518221;28;19925;-76
2023/06/18 15:49:53;;;;;;;;;;;;;;;24.69;89.39;100801.34;10520710;28;20261;-77
2023/06/18 15:54:53;;;;;;;;;;;;;;;24.57;100.00;100802.38;10516075;28;19924;-76
2023/06/18 15:59:53;;;;;;;;;;;;;;;24.22;100.00;100795.63;10519988;28;20007;-77
2023/06/18 16:04:55;;;;;;;;;;;;;;;23.96;100.00;100793.16;10518573;28;20019;-78
2023/06/18 16:09:55;;;;;;;;;;;;;;;23.67;100.00;100784.50;10514104;27;20339;-76
2023/06/18 16:14:56;;;;;;;;;;;;;;;23.24;100.00;100787.47;10516749;28;19924;-77
2023/06/18 16:19:56;;;;;;;;;;;;;;;22.84;100.00;100778.75;10517314;28;19925;-79
2023/06/18 16:24:56;;;;;;;;;;;;;;;22.55;100.00;100766.41;10551242;27;19933;-79
2023/06/18 16:29:57;;;;;;;;;;;;;;;22.43;100.00;100764.66;10518828;28;20036;-79
2023/06/18 16:34:57;;;;;;;;;;;;;;;22.37;100.00;100758.44;10491520;28;20364;-80
2023/06/18 16:39:57;;;;;;;;;;;;;;;22.47;100.00;100756.69;10489177;28;19931;-80
2023/06/18 16:44:58;;;;;;;;;;;;;;;22.54;100.00;100764.63;10487856;28;20436;-80
2023/06/18 16:49:58;;;;;;;;;;;;;;;22.50;100.00;100759.34;10479924;28;20028;-80
2023/06/18 16:54:58;;;;;;;;;;;;;;;22.42;100.00;100749.56;10478288;28;19978;-80
2023/06/18 16:59:59;;;;;;;;;;;;;;;22.46;100.00;100753.13;10486202;28;20502;-81
2023/06/18 17:04:59;;;;;;;;;;;;;;;22.52;100.00;100752.22;10489946;28;20261;-80
2023/06/18 17:10:00;;;;;;;;;;;;;;;22.47;100.00;100754.88;10499009;28;19987;-81
2023/06/18 17:15:00;;;;;;;;;;;;;;;22.40;100.00;100748.69;10506916;28;19943;-81
2023/06/18 17:20:01;;;;;;;;;;;;;;;22.49;100.00;100742.44;10485391;28;20025;-80
2023/06/18 17:25:01;;;;;;;;;;;;;;;22.72;100.00;100742.34;10481305;28;19939;-78
2023/06/18 17:30:01;;;;;;;;;;;;;;;22.79;100.00;100724.53;10487525;28;19929;-81
2023/06/18 17:35:02;;;;;;;;;;;;;;;22.85;100.00;100712.94;10486945;28;20116;-81
2023/06/18 17:40:02;;;;;;;;;;;;;;;22.94;100.00;100710.22;10487299;28;20007;-81
2023/06/18 17:45:03;;;;;;;;;;;;;;;22.92;100.00;100697.78;10480734;28;19928;-81
2023/06/18 17:50:03;;;;;;;;;;;;;;;22.90;100.00;100694.22;10485293;28;19936;-81
2023/06/18 17:55:04;;;;;;;;;;;;;;;22.78;100.00;100688.06;10483090;28;19932;-78
2023/06/18 18:00:05;;;;;;;;;;;;;;;22.61;100.00;100680.19;10486271;28;19928;-77
2023/06/18 18:05:05;;;;;;;;;;;;;;;22.37;100.00;100678.47;10488030;28;20019;-77
2023/06/18 18:10:06;;;;;;;;;;;;;;;22.10;100.00;100675.91;10485616;28;19924;-76
2023/06/18 18:15:06;;;;;;;;;;;;;;;21.92;100.00;100662.66;10485249;28;19931;-81
2023/06/18 18:20:07;;;;;;;;;;;;;;;21.89;100.00;100654.66;10476389;28;19924;-78
2023/06/18 18:25:08;;;;;;;;;;;;;;;22.02;100.00;100656.41;10475999;28;20015;-80
2023/06/18 18:30:08;;;;;;;;;;;;;;;21.76;100.00;100654.69;10516364;28;19932;-80
2023/06/18 18:35:08;;;;;;;;;;;;;;;21.53;100.00;100652.91;10483963;28;19930;-81
2023/06/18 18:40:09;;;;;;;;;;;;;;;21.48;100.00;100652.03;10485189;28;20023;-82
2023/06/18 18:45:10;;;;;;;;;;;;;;;21.37;100.00;100648.50;10516881;28;19981;-81
2023/06/18 18:50:10;;;;;;;;;;;;;;;21.30;100.00;100649.38;10468930;28;19928;-81
2023/06/18 18:55:11;;;;;;;;;;;;;;;21.26;100.00;100656.47;10483137;28;19932;-81
2023/06/18 19:00:11;;;;;;;;;;;;;;;21.15;100.00;100655.56;10483718;28;19924;-81
2023/06/18 19:05:12;;;;;;;;;;;;;;;21.05;100.00;100655.56;10454609;28;19925;-81
2023/06/18 19:10:12;;;;;;;;;;;;;;;21.00;100.00;100654.66;10484463;28;19928;-81
2023/06/18 19:15:13;;;;;;;;;;;;;;;20.93;100.00;100671.50;10483950;28;19932;-81
2023/06/18 19:20:13;;;;;;;;;;;;;;;20.79;100.00;100668.84;10516948;28;19978;-81
2023/06/18 19:25:14;;;;;;;;;;;;;;;20.73;100.00;100659.03;10498446;28;19924;-81
2023/06/18 19:30:14;;;;;;;;;;;;;;;20.62;100.00;100672.31;10485579;28;20367;-81
2023/06/18 19:35:14;;;;;;;;;;;;;;;20.58;100.00;100677.59;10472085;28;19932;-81
2023/06/18 19:40:15;;;;;;;;;;;;;;;20.48;100.00;100671.38;10442746;28;19924;-81
2023/06/18 19:45:15;;;;;;;;;;;;;;;20.41;100.00;100678.41;10454934;28;19978;-79
2023/06/18 19:50:16;;;;;;;;;;;;;;;20.34;100.00;100671.31;10484318;28;20323;-75
2023/06/18 19:55:17;;;;;;;;;;;;;;;20.30;100.00;100674.81;10482577;28;19916;-78
2023/06/18 20:00:17;;;;;;;;;;;;;;;20.21;100.00;100667.72;10483932;28;20360;-78
2023/06/18 20:05:18;;;;;;;;;;;;;;;20.16;100.00;100666.81;10471322;28;19925;-78
2023/06/18 20:10:18;;;;;;;;;;;;;;;20.13;100.00;100664.13;10479496;28;19925;-80
2023/06/18 20:15:19;;;;;;;;;;;;;;;20.04;100.00;100657.91;10488530;28;19931;-79
2023/06/18 20:23:08;;;;;;;21.65;16.08;;;;;;;20.06;100.00;100661.44;10478168;27;20882;-78
2023/06/18 20:28:09;;;;;;;10.60;7.35;;;;;;;20.04;100.00;100665.88;10460227;28;20037;-77
2023/06/18 20:33:11;;;;;;;12.67;9.73;;;;;;;19.99;100.00;100675.56;10475064;28;20049;-78
2023/06/18 20:38:12;;;;;;;13.65;8.98;;;;;;;19.84;100.00;100704.66;10402299;28;20056;-78
2023/06/18 20:43:12;;;;;;;16.73;8.98;;;;;;;19.67;100.00;100711.59;10434386;28;20037;-77
2023/06/18 20:48:14;;;;;;;17.20;9.50;;;;;;;19.63;100.00;100706.28;10444014;28;20060;-77
2023/06/18 20:53:15;;;;;;;14.88;9.82;;;;;;;19.40;100.00;100716.69;10446734;28;20037;-77
2023/06/18 20:58:15;;;;;;;15.07;9.60;;;;;;;19.19;100.00;100710.31;10436466;28;20112;-77
2023/06/18 21:03:19;;;;;;;14.15;9.75;;;;;;;19.00;100.00;100709.25;10449365;28;20044;-78
2023/06/18 21:08:19;;;;;;;13.52;11.23;;;;;;;18.83;100.00;100722.28;10473279;28;20041;-78
2023/06/18 21:13:20;;;;;;;10.93;9.82;;;;;;;18.68;100.00;100723.00;10431464;28;20512;-78
2023/06/18 21:18:20;;;;;;;12.73;10.32;;;;;;;18.71;100.00;100737.16;10433415;28;20033;-78
2023/06/18 21:23:21;;;;;;;13.68;9.10;;;;;;;19.02;100.00;100715.47;10468236;28;20041;-77
2023/06/18 21:28:22;;;;;;;15.18;9.55;;;;;;;19.49;100.00;100720.34;10508644;28;20055;-78
2023/06/18 21:33:22;;;;;;;9.70;7.47;;;;;;;19.83;100.00;100693.13;10452634;28;20054;-77
2023/06/18 21:38:23;;;;;;;8.60;6.95;;;;;;;20.50;100.00;100686.44;10378112;28;20439;-79
2023/06/18 21:43:23;;;;;;;11.38;5.40;;;;;;;21.00;100.00;100662.66;10435945;28;20106;-80
2023/06/18 21:48:26;;;;;;;13.55;7.40;;;;;;;21.36;100.00;100652.91;10421596;28;20041;-78
2023/06/18 21:53:27;;;;;;;9.68;6.15;;;;;;;21.61;100.00;100646.69;10407321;28;20095;-78
2023/06/18 21:58:27;;;;;;;8.95;5.93;;;;;;;21.50;100.00;100636.03;10407589;28;20124;-78
2023/06/18 22:03:28;;;;;;;8.50;6.03;;;;;;;21.52;100.00;100618.28;10404464;28;20128;-77
2023/06/18 22:08:41;;;;;;;10.57;5.97;;;;;;;21.42;100.00;100630.75;10406359;28;20536;-77
2023/06/18 22:13:42;;;;;;;8.52;5.18;;;;;;;21.36;100.00;100622.75;10425104;28;20044;-78
2023/06/18 22:18:43;;;;;;;9.73;6.45;;;;;;;21.40;100.00;100633.38;10447232;28;20033;-78
2023/06/18 22:23:45;;;;;;;8.87;6.03;;;;;;;21.32;100.00;100632.50;10445072;28;20401;-78
2023/06/18 22:28:46;;;;;;;11.48;4.68;;;;;;;21.19;100.00;100620.09;10428409;28;20148;-78
2023/06/18 22:33:46;;;;;;;6.97;4.45;;;;;;;21.18;100.00;100613.00;10423805;28;20045;-78
2023/06/18 22:38:47;;;;;;;6.53;4.80;;;;;;;20.93;100.00;100626.28;10405737;28;20042;-78
2023/06/18 22:43:47;;;;;;;8.10;6.07;;;;;;;20.78;100.00;100638.69;10402606;28;20472;-77
2023/06/18 22:48:48;;;;;;;8.55;6.05;;;;;;;20.65;100.00;100651.03;10443784;28;20045;-78
2023/06/18 22:53:48;;;;;;;8.30;6.40;;;;;;;20.50;100.00;100638.59;10446705;28;20033;-78
2023/06/18 22:58:49;;;;;;;6.47;5.20;;;;;;;20.32;100.00;100635.88;10408530;28;20068;-78
2023/06/18 23:03:49;;;;;;;9.32;6.15;;;;;;;20.17;100.00;100639.38;10396458;28;20041;-78
2023/06/18 23:08:50;;;;;;;9.45;6.20;;;;;;;20.05;100.00;100640.19;10400345;28;20116;-77
2023/06/18 23:13:50;;;;;;;6.90;5.45;;;;;;;19.85;100.00;100640.91;10402158;28;20064;-78
2023/06/18 23:18:51;;;;;;;10.70;6.35;;;;;;;19.58;100.00;100628.38;10437309;28;20131;-77
2023/06/18 23:23:52;;;;;;;7.80;6.15;;;;;;;19.27;100.00;100646.72;10438109;28;20048;-78
2023/06/18 23:28:53;;;;;;;8.95;5.55;;;;;;;19.00;100.00;100651.78;10436998;28;20123;-78
2023/06/18 23:33:55;;;;;;;7.87;5.97;;;;;;;18.85;100.00;100652.50;10433547;28;20061;-78
2023/06/18 23:38:55;;;;;;;12.68;5.60;;;;;;;18.66;100.00;100659.34;10417726;28;20041;-79
2023/06/18 23:43:55;;;;;;;8.60;7.15;;;;;;;18.47;100.00;100658.28;10444565;28;20135;-78
2023/06/18 23:48:58;;;;;;;10.32;6.65;;;;;;;18.39;100.00;100667.91;10406927;28;20140;-78
2023/06/18 23:53:58;;;;;;;7.03;5.70;;;;;;;18.33;100.00;100679.28;10402034;28;20041;-77
2023/06/18 23:58:59;;;;;;;12.48;6.65;;;;;;;18.30;100.00;100668.66;10400668;28;20519;-78
